sensor_id;sensor_type;location;lat;lon;timestamp;P1;durP1;ratioP1;P2;durP2;ratioP2
15655;SDS011;7928;43.614;1.456;2023-02-28T00:00:23;3.77;;;2.57;;
15655;SDS011;7928;43.614;1.456;2023-02-28T00:02:51;4.97;;;2.90;;
15655;SDS011;7928;43.614;1.456;2023-02-28T00:05:18;3.83;;;2.40;;
15655;SDS011;7928;43.614;1.456;2023-02-28T00:07:47;3.33;;;2.40;;
15655;SDS011;7928;43.614;1.456;2023-02-28T00:10:16;4.13;;;3.07;;
15655;SDS011;7928;43.614;1.456;2023-02-28T00:12:45;4.20;;;2.80;;
15655;SDS011;7928;43.614;1.456;2023-02-28T00:15:14;3.57;;;2.33;;
15655;SDS011;7928;43.614;1.456;2023-02-28T00:17:42;4.57;;;2.67;;
15655;SDS011;7928;43.614;1.456;2023-02-28T00:20:10;4.03;;;2.60;;
15655;SDS011;7928;43.614;1.456;2023-02-28T00:22:38;2.90;;;2.37;;
15655;SDS011;7928;43.614;1.456;2023-02-28T00:25:06;4.23;;;2.63;;
15655;SDS011;7928;43.614;1.456;2023-02-28T00:27:35;3.17;;;2.63;;
15655;SDS011;7928;43.614;1.456;2023-02-28T00:30:04;8.33;;;2.57;;
15655;SDS011;7928;43.614;1.456;2023-02-28T00:32:35;4.07;;;2.73;;
15655;SDS011;7928;43.614;1.456;2023-02-28T00:35:02;3.00;;;2.47;;
15655;SDS011;7928;43.614;1.456;2023-02-28T00:37:30;3.40;;;2.63;;
15655;SDS011;7928;43.614;1.456;2023-02-28T00:39:57;4.73;;;2.93;;
15655;SDS011;7928;43.614;1.456;2023-02-28T00:42:24;3.43;;;2.70;;
15655;SDS011;7928;43.614;1.456;2023-02-28T00:47:45;4.17;;;2.43;;
15655;SDS011;7928;43.614;1.456;2023-02-28T00:50:15;4.83;;;2.67;;
15655;SDS011;7928;43.614;1.456;2023-02-28T00:52:42;3.37;;;2.90;;
15655;SDS011;7928;43.614;1.456;2023-02-28T00:55:10;4.07;;;3.00;;
15655;SDS011;7928;43.614;1.456;2023-02-28T00:57:37;3.13;;;2.67;;
15655;SDS011;7928;43.614;1.456;2023-02-28T01:00:05;4.20;;;3.10;;
15655;SDS011;7928;43.614;1.456;2023-02-28T01:02:34;4.07;;;3.37;;
15655;SDS011;7928;43.614;1.456;2023-02-28T01:05:02;4.83;;;2.80;;
15655;SDS011;7928;43.614;1.456;2023-02-28T01:07:30;4.93;;;2.93;;
15655;SDS011;7928;43.614;1.456;2023-02-28T01:09:57;4.37;;;2.67;;
15655;SDS011;7928;43.614;1.456;2023-02-28T01:12:24;4.03;;;2.43;;
15655;SDS011;7928;43.614;1.456;2023-02-28T01:14:51;5.70;;;2.97;;
15655;SDS011;7928;43.614;1.456;2023-02-28T01:17:18;3.37;;;2.67;;
15655;SDS011;7928;43.614;1.456;2023-02-28T01:19:45;4.10;;;2.90;;
15655;SDS011;7928;43.614;1.456;2023-02-28T01:22:13;3.77;;;3.00;;
15655;SDS011;7928;43.614;1.456;2023-02-28T01:24:40;4.07;;;2.53;;
15655;SDS011;7928;43.614;1.456;2023-02-28T01:27:07;4.23;;;2.83;;
15655;SDS011;7928;43.614;1.456;2023-02-28T01:29:34;6.20;;;3.13;;
15655;SDS011;7928;43.614;1.456;2023-02-28T01:32:01;3.83;;;2.87;;
15655;SDS011;7928;43.614;1.456;2023-02-28T01:34:28;5.37;;;3.07;;
15655;SDS011;7928;43.614;1.456;2023-02-28T01:36:56;3.87;;;2.70;;
15655;SDS011;7928;43.614;1.456;2023-02-28T01:39:25;3.33;;;2.60;;
15655;SDS011;7928;43.614;1.456;2023-02-28T01:41:52;5.13;;;3.10;;
15655;SDS011;7928;43.614;1.456;2023-02-28T01:47:29;3.67;;;2.97;;
15655;SDS011;7928;43.614;1.456;2023-02-28T01:49:59;4.80;;;2.97;;
15655;SDS011;7928;43.614;1.456;2023-02-28T01:52:30;3.23;;;2.93;;
15655;SDS011;7928;43.614;1.456;2023-02-28T01:54:59;4.27;;;2.97;;
15655;SDS011;7928;43.614;1.456;2023-02-28T01:57:29;3.70;;;2.93;;
15655;SDS011;7928;43.614;1.456;2023-02-28T02:00:04;5.97;;;3.10;;
15655;SDS011;7928;43.614;1.456;2023-02-28T02:02:34;4.60;;;3.40;;
15655;SDS011;7928;43.614;1.456;2023-02-28T02:05:04;4.93;;;3.40;;
15655;SDS011;7928;43.614;1.456;2023-02-28T02:07:33;5.43;;;3.20;;
15655;SDS011;7928;43.614;1.456;2023-02-28T02:10:09;4.43;;;2.93;;
15655;SDS011;7928;43.614;1.456;2023-02-28T02:13:05;4.70;;;3.33;;
15655;SDS011;7928;43.614;1.456;2023-02-28T02:15:42;8.87;;;3.23;;
15655;SDS011;7928;43.614;1.456;2023-02-28T02:18:17;6.47;;;2.90;;
15655;SDS011;7928;43.614;1.456;2023-02-28T02:27:08;3.97;;;2.93;;
15655;SDS011;7928;43.614;1.456;2023-02-28T02:29:57;5.67;;;3.60;;
15655;SDS011;7928;43.614;1.456;2023-02-28T02:33:01;3.50;;;2.70;;
15655;SDS011;7928;43.614;1.456;2023-02-28T02:35:40;4.77;;;3.17;;
15655;SDS011;7928;43.614;1.456;2023-02-28T02:38:14;4.00;;;2.73;;
15655;SDS011;7928;43.614;1.456;2023-02-28T02:40:47;4.57;;;3.40;;
15655;SDS011;7928;43.614;1.456;2023-02-28T02:43:29;4.27;;;2.80;;
15655;SDS011;7928;43.614;1.456;2023-02-28T02:46:02;5.43;;;3.40;;
15655;SDS011;7928;43.614;1.456;2023-02-28T02:48:33;5.60;;;3.50;;
15655;SDS011;7928;43.614;1.456;2023-02-28T02:51:05;5.23;;;3.30;;
15655;SDS011;7928;43.614;1.456;2023-02-28T02:53:37;5.50;;;3.00;;
15655;SDS011;7928;43.614;1.456;2023-02-28T02:56:10;3.60;;;2.80;;
15655;SDS011;7928;43.614;1.456;2023-02-28T02:58:40;4.73;;;3.20;;
15655;SDS011;7928;43.614;1.456;2023-02-28T03:01:10;5.20;;;3.53;;
15655;SDS011;7928;43.614;1.456;2023-02-28T03:03:42;4.23;;;3.07;;
15655;SDS011;7928;43.614;1.456;2023-02-28T03:06:12;3.93;;;3.00;;
15655;SDS011;7928;43.614;1.456;2023-02-28T03:08:41;4.67;;;3.60;;
15655;SDS011;7928;43.614;1.456;2023-02-28T03:11:11;5.27;;;3.63;;
15655;SDS011;7928;43.614;1.456;2023-02-28T03:13:52;4.00;;;3.00;;
15655;SDS011;7928;43.614;1.456;2023-02-28T03:16:31;4.10;;;3.33;;
15655;SDS011;7928;43.614;1.456;2023-02-28T03:22:22;4.00;;;3.13;;
15655;SDS011;7928;43.614;1.456;2023-02-28T03:25:12;7.83;;;4.03;;
15655;SDS011;7928;43.614;1.456;2023-02-28T03:27:46;5.27;;;3.60;;
15655;SDS011;7928;43.614;1.456;2023-02-28T03:30:22;4.40;;;3.63;;
15655;SDS011;7928;43.614;1.456;2023-02-28T03:32:55;4.53;;;3.30;;
15655;SDS011;7928;43.614;1.456;2023-02-28T03:35:27;5.90;;;3.33;;
15655;SDS011;7928;43.614;1.456;2023-02-28T03:38:00;6.17;;;3.50;;
15655;SDS011;7928;43.614;1.456;2023-02-28T03:40:43;4.80;;;3.53;;
15655;SDS011;7928;43.614;1.456;2023-02-28T03:43:15;5.33;;;3.67;;
15655;SDS011;7928;43.614;1.456;2023-02-28T03:45:47;3.60;;;2.93;;
15655;SDS011;7928;43.614;1.456;2023-02-28T03:48:18;3.73;;;3.13;;
15655;SDS011;7928;43.614;1.456;2023-02-28T03:50:48;7.30;;;3.60;;
15655;SDS011;7928;43.614;1.456;2023-02-28T03:53:22;4.23;;;3.33;;
15655;SDS011;7928;43.614;1.456;2023-02-28T03:55:53;5.63;;;3.27;;
15655;SDS011;7928;43.614;1.456;2023-02-28T03:58:25;5.30;;;3.67;;
15655;SDS011;7928;43.614;1.456;2023-02-28T04:00:57;6.93;;;3.63;;
15655;SDS011;7928;43.614;1.456;2023-02-28T04:03:33;3.97;;;3.20;;
15655;SDS011;7928;43.614;1.456;2023-02-28T04:06:03;5.23;;;4.00;;
15655;SDS011;7928;43.614;1.456;2023-02-28T04:08:33;5.13;;;3.70;;
15655;SDS011;7928;43.614;1.456;2023-02-28T04:11:01;7.13;;;4.13;;
15655;SDS011;7928;43.614;1.456;2023-02-28T04:13:31;4.67;;;3.80;;
15655;SDS011;7928;43.614;1.456;2023-02-28T04:15:58;5.57;;;4.00;;
15655;SDS011;7928;43.614;1.456;2023-02-28T04:18:25;4.47;;;3.03;;
15655;SDS011;7928;43.614;1.456;2023-02-28T04:20:52;6.70;;;4.03;;
15655;SDS011;7928;43.614;1.456;2023-02-28T04:23:19;6.67;;;3.97;;
15655;SDS011;7928;43.614;1.456;2023-02-28T04:25:48;4.47;;;3.33;;
15655;SDS011;7928;43.614;1.456;2023-02-28T04:28:16;4.77;;;4.03;;
15655;SDS011;7928;43.614;1.456;2023-02-28T04:30:43;4.77;;;3.63;;
15655;SDS011;7928;43.614;1.456;2023-02-28T04:33:10;5.43;;;3.60;;
15655;SDS011;7928;43.614;1.456;2023-02-28T04:35:37;4.97;;;3.50;;
15655;SDS011;7928;43.614;1.456;2023-02-28T04:38:04;5.50;;;4.30;;
15655;SDS011;7928;43.614;1.456;2023-02-28T04:40:31;4.67;;;3.33;;
15655;SDS011;7928;43.614;1.456;2023-02-28T04:42:59;4.97;;;3.57;;
15655;SDS011;7928;43.614;1.456;2023-02-28T04:45:26;4.50;;;3.57;;
15655;SDS011;7928;43.614;1.456;2023-02-28T04:47:55;4.53;;;3.67;;
15655;SDS011;7928;43.614;1.456;2023-02-28T04:50:22;4.93;;;3.90;;
15655;SDS011;7928;43.614;1.456;2023-02-28T04:52:49;6.10;;;3.97;;
15655;SDS011;7928;43.614;1.456;2023-02-28T04:55:16;4.37;;;3.50;;
15655;SDS011;7928;43.614;1.456;2023-02-28T04:57:43;6.37;;;3.87;;
15655;SDS011;7928;43.614;1.456;2023-02-28T05:00:12;4.73;;;3.97;;
15655;SDS011;7928;43.614;1.456;2023-02-28T05:02:41;5.77;;;4.17;;
15655;SDS011;7928;43.614;1.456;2023-02-28T05:05:08;4.43;;;4.00;;
15655;SDS011;7928;43.614;1.456;2023-02-28T05:07:37;5.97;;;3.80;;
15655;SDS011;7928;43.614;1.456;2023-02-28T05:10:04;6.10;;;4.07;;
15655;SDS011;7928;43.614;1.456;2023-02-28T05:12:32;5.43;;;4.30;;
15655;SDS011;7928;43.614;1.456;2023-02-28T05:14:59;6.10;;;4.23;;
15655;SDS011;7928;43.614;1.456;2023-02-28T05:17:28;5.77;;;3.90;;
15655;SDS011;7928;43.614;1.456;2023-02-28T05:19:55;5.53;;;4.43;;
15655;SDS011;7928;43.614;1.456;2023-02-28T05:22:22;4.70;;;4.23;;
15655;SDS011;7928;43.614;1.456;2023-02-28T05:24:49;5.43;;;4.20;;
15655;SDS011;7928;43.614;1.456;2023-02-28T05:27:16;5.27;;;4.23;;
15655;SDS011;7928;43.614;1.456;2023-02-28T05:29:43;5.50;;;4.30;;
15655;SDS011;7928;43.614;1.456;2023-02-28T05:32:11;5.33;;;4.33;;
15655;SDS011;7928;43.614;1.456;2023-02-28T05:34:39;5.90;;;4.20;;
15655;SDS011;7928;43.614;1.456;2023-02-28T05:37:08;7.03;;;4.50;;
15655;SDS011;7928;43.614;1.456;2023-02-28T05:39:38;4.87;;;4.20;;
15655;SDS011;7928;43.614;1.456;2023-02-28T05:42:06;6.90;;;4.83;;
15655;SDS011;7928;43.614;1.456;2023-02-28T05:44:34;5.63;;;5.10;;
15655;SDS011;7928;43.614;1.456;2023-02-28T05:47:01;11.27;;;5.00;;
15655;SDS011;7928;43.614;1.456;2023-02-28T05:49:28;6.90;;;4.90;;
15655;SDS011;7928;43.614;1.456;2023-02-28T05:51:57;6.67;;;4.73;;
15655;SDS011;7928;43.614;1.456;2023-02-28T05:54:24;7.37;;;4.83;;
15655;SDS011;7928;43.614;1.456;2023-02-28T05:56:51;5.50;;;4.47;;
15655;SDS011;7928;43.614;1.456;2023-02-28T05:59:18;6.47;;;4.33;;
15655;SDS011;7928;43.614;1.456;2023-02-28T06:01:45;6.53;;;4.70;;
15655;SDS011;7928;43.614;1.456;2023-02-28T06:04:14;6.30;;;5.00;;
15655;SDS011;7928;43.614;1.456;2023-02-28T06:06:44;7.77;;;5.40;;
15655;SDS011;7928;43.614;1.456;2023-02-28T06:09:12;8.63;;;5.67;;
15655;SDS011;7928;43.614;1.456;2023-02-28T06:11:40;5.87;;;4.77;;
15655;SDS011;7928;43.614;1.456;2023-02-28T06:14:07;8.67;;;5.30;;
15655;SDS011;7928;43.614;1.456;2023-02-28T06:16:39;6.17;;;4.83;;
15655;SDS011;7928;43.614;1.456;2023-02-28T06:19:06;7.77;;;5.47;;
15655;SDS011;7928;43.614;1.456;2023-02-28T06:21:33;7.80;;;6.07;;
15655;SDS011;7928;43.614;1.456;2023-02-28T06:24:00;7.57;;;5.60;;
15655;SDS011;7928;43.614;1.456;2023-02-28T06:26:29;8.83;;;5.40;;
15655;SDS011;7928;43.614;1.456;2023-02-28T06:28:57;7.87;;;5.50;;
15655;SDS011;7928;43.614;1.456;2023-02-28T06:31:25;6.83;;;5.50;;
15655;SDS011;7928;43.614;1.456;2023-02-28T06:33:54;7.40;;;5.60;;
15655;SDS011;7928;43.614;1.456;2023-02-28T06:36:21;7.23;;;6.10;;
15655;SDS011;7928;43.614;1.456;2023-02-28T06:38:48;7.10;;;5.73;;
15655;SDS011;7928;43.614;1.456;2023-02-28T06:41:19;7.50;;;5.60;;
15655;SDS011;7928;43.614;1.456;2023-02-28T06:43:49;6.57;;;5.30;;
15655;SDS011;7928;43.614;1.456;2023-02-28T06:46:16;7.77;;;5.83;;
15655;SDS011;7928;43.614;1.456;2023-02-28T06:48:43;8.10;;;6.40;;
15655;SDS011;7928;43.614;1.456;2023-02-28T06:51:12;11.43;;;5.70;;
15655;SDS011;7928;43.614;1.456;2023-02-28T06:53:41;6.97;;;6.20;;
15655;SDS011;7928;43.614;1.456;2023-02-28T06:56:09;7.93;;;5.87;;
15655;SDS011;7928;43.614;1.456;2023-02-28T06:58:38;10.13;;;6.10;;
15655;SDS011;7928;43.614;1.456;2023-02-28T07:01:07;7.43;;;5.53;;
15655;SDS011;7928;43.614;1.456;2023-02-28T07:03:35;7.97;;;5.50;;
15655;SDS011;7928;43.614;1.456;2023-02-28T07:06:02;7.97;;;5.47;;
15655;SDS011;7928;43.614;1.456;2023-02-28T07:08:31;7.03;;;5.17;;
15655;SDS011;7928;43.614;1.456;2023-02-28T07:10:58;7.60;;;5.53;;
15655;SDS011;7928;43.614;1.456;2023-02-28T07:13:25;6.53;;;5.27;;
15655;SDS011;7928;43.614;1.456;2023-02-28T07:15:53;7.23;;;5.60;;
15655;SDS011;7928;43.614;1.456;2023-02-28T07:18:22;7.50;;;5.13;;
15655;SDS011;7928;43.614;1.456;2023-02-28T07:20:49;9.07;;;4.80;;
15655;SDS011;7928;43.614;1.456;2023-02-28T07:23:16;6.53;;;5.20;;
15655;SDS011;7928;43.614;1.456;2023-02-28T07:25:43;10.37;;;5.37;;
15655;SDS011;7928;43.614;1.456;2023-02-28T07:28:11;8.40;;;5.50;;
15655;SDS011;7928;43.614;1.456;2023-02-28T07:30:39;7.23;;;5.67;;
15655;SDS011;7928;43.614;1.456;2023-02-28T07:33:06;8.37;;;5.90;;
15655;SDS011;7928;43.614;1.456;2023-02-28T07:35:35;7.20;;;5.37;;
15655;SDS011;7928;43.614;1.456;2023-02-28T07:38:02;8.93;;;5.13;;
15655;SDS011;7928;43.614;1.456;2023-02-28T07:40:30;7.20;;;5.30;;
15655;SDS011;7928;43.614;1.456;2023-02-28T07:42:58;5.97;;;5.00;;
15655;SDS011;7928;43.614;1.456;2023-02-28T07:45:26;6.77;;;5.20;;
15655;SDS011;7928;43.614;1.456;2023-02-28T07:47:54;7.47;;;5.63;;
15655;SDS011;7928;43.614;1.456;2023-02-28T07:50:22;7.17;;;6.03;;
15655;SDS011;7928;43.614;1.456;2023-02-28T07:52:50;5.83;;;5.23;;
15655;SDS011;7928;43.614;1.456;2023-02-28T07:55:18;9.23;;;5.93;;
15655;SDS011;7928;43.614;1.456;2023-02-28T07:57:45;6.87;;;5.50;;
15655;SDS011;7928;43.614;1.456;2023-02-28T08:00:12;7.43;;;5.67;;
15655;SDS011;7928;43.614;1.456;2023-02-28T08:02:40;8.67;;;5.47;;
15655;SDS011;7928;43.614;1.456;2023-02-28T08:05:07;7.20;;;5.30;;
15655;SDS011;7928;43.614;1.456;2023-02-28T08:07:34;6.20;;;5.13;;
15655;SDS011;7928;43.614;1.456;2023-02-28T08:10:03;8.97;;;5.43;;
15655;SDS011;7928;43.614;1.456;2023-02-28T08:14:58;10.67;;;5.13;;
15655;SDS011;7928;43.614;1.456;2023-02-28T08:17:25;6.27;;;4.93;;
15655;SDS011;7928;43.614;1.456;2023-02-28T08:19:53;8.80;;;5.60;;
15655;SDS011;7928;43.614;1.456;2023-02-28T08:22:20;6.13;;;5.10;;
15655;SDS011;7928;43.614;1.456;2023-02-28T08:24:47;6.57;;;5.00;;
15655;SDS011;7928;43.614;1.456;2023-02-28T08:27:15;7.47;;;5.10;;
15655;SDS011;7928;43.614;1.456;2023-02-28T08:29:42;5.30;;;4.80;;
15655;SDS011;7928;43.614;1.456;2023-02-28T08:32:09;6.27;;;4.50;;
15655;SDS011;7928;43.614;1.456;2023-02-28T08:34:38;7.80;;;4.70;;
15655;SDS011;7928;43.614;1.456;2023-02-28T08:37:05;6.50;;;4.63;;
15655;SDS011;7928;43.614;1.456;2023-02-28T08:39:33;5.77;;;4.73;;
15655;SDS011;7928;43.614;1.456;2023-02-28T08:42:01;4.77;;;4.20;;
15655;SDS011;7928;43.614;1.456;2023-02-28T08:44:29;6.60;;;4.20;;
15655;SDS011;7928;43.614;1.456;2023-02-28T08:46:56;10.70;;;4.70;;
15655;SDS011;7928;43.614;1.456;2023-02-28T08:49:23;6.90;;;4.73;;
15655;SDS011;7928;43.614;1.456;2023-02-28T08:51:51;4.97;;;4.47;;
15655;SDS011;7928;43.614;1.456;2023-02-28T08:54:19;5.70;;;4.00;;
15655;SDS011;7928;43.614;1.456;2023-02-28T08:56:46;8.33;;;4.07;;
15655;SDS011;7928;43.614;1.456;2023-02-28T08:59:14;6.10;;;3.93;;
15655;SDS011;7928;43.614;1.456;2023-02-28T09:01:42;6.63;;;4.33;;
15655;SDS011;7928;43.614;1.456;2023-02-28T09:04:09;8.23;;;4.10;;
15655;SDS011;7928;43.614;1.456;2023-02-28T09:06:37;4.77;;;4.27;;
15655;SDS011;7928;43.614;1.456;2023-02-28T09:09:04;6.70;;;4.37;;
15655;SDS011;7928;43.614;1.456;2023-02-28T09:11:32;5.30;;;4.30;;
15655;SDS011;7928;43.614;1.456;2023-02-28T09:14:00;6.70;;;4.37;;
15655;SDS011;7928;43.614;1.456;2023-02-28T09:16:28;7.40;;;4.13;;
15655;SDS011;7928;43.614;1.456;2023-02-28T09:18:58;7.53;;;4.40;;
15655;SDS011;7928;43.614;1.456;2023-02-28T09:21:25;5.10;;;4.13;;
15655;SDS011;7928;43.614;1.456;2023-02-28T09:23:52;9.53;;;4.67;;
15655;SDS011;7928;43.614;1.456;2023-02-28T09:26:20;5.93;;;4.37;;
15655;SDS011;7928;43.614;1.456;2023-02-28T09:28:49;4.60;;;3.87;;
15655;SDS011;7928;43.614;1.456;2023-02-28T09:31:17;4.93;;;3.87;;
15655;SDS011;7928;43.614;1.456;2023-02-28T09:33:46;7.17;;;4.57;;
15655;SDS011;7928;43.614;1.456;2023-02-28T09:36:15;6.07;;;4.53;;
15655;SDS011;7928;43.614;1.456;2023-02-28T09:38:43;5.63;;;4.07;;
15655;SDS011;7928;43.614;1.456;2023-02-28T09:41:12;6.33;;;4.70;;
15655;SDS011;7928;43.614;1.456;2023-02-28T09:43:43;5.83;;;3.57;;
15655;SDS011;7928;43.614;1.456;2023-02-28T09:46:14;6.13;;;4.50;;
15655;SDS011;7928;43.614;1.456;2023-02-28T09:48:50;6.00;;;4.10;;
15655;SDS011;7928;43.614;1.456;2023-02-28T09:51:30;5.80;;;4.23;;
15655;SDS011;7928;43.614;1.456;2023-02-28T09:54:04;7.10;;;3.90;;
15655;SDS011;7928;43.614;1.456;2023-02-28T09:56:34;6.33;;;4.10;;
15655;SDS011;7928;43.614;1.456;2023-02-28T09:59:06;6.40;;;4.17;;
15655;SDS011;7928;43.614;1.456;2023-02-28T10:01:42;4.00;;;3.60;;
15655;SDS011;7928;43.614;1.456;2023-02-28T10:04:21;4.27;;;3.73;;
15655;SDS011;7928;43.614;1.456;2023-02-28T10:07:03;4.37;;;3.77;;
15655;SDS011;7928;43.614;1.456;2023-02-28T10:09:45;5.70;;;3.97;;
15655;SDS011;7928;43.614;1.456;2023-02-28T10:12:17;4.07;;;3.67;;
15655;SDS011;7928;43.614;1.456;2023-02-28T10:14:47;5.03;;;4.00;;
15655;SDS011;7928;43.614;1.456;2023-02-28T10:17:18;4.80;;;3.90;;
15655;SDS011;7928;43.614;1.456;2023-02-28T10:19:50;6.70;;;4.17;;
15655;SDS011;7928;43.614;1.456;2023-02-28T10:22:27;6.07;;;4.43;;
15655;SDS011;7928;43.614;1.456;2023-02-28T10:25:00;4.63;;;4.13;;
15655;SDS011;7928;43.614;1.456;2023-02-28T10:27:29;5.47;;;4.40;;
15655;SDS011;7928;43.614;1.456;2023-02-28T10:29:58;5.73;;;3.70;;
15655;SDS011;7928;43.614;1.456;2023-02-28T10:32:27;5.67;;;4.20;;
15655;SDS011;7928;43.614;1.456;2023-02-28T10:34:57;5.10;;;4.10;;
15655;SDS011;7928;43.614;1.456;2023-02-28T10:37:28;5.90;;;3.80;;
15655;SDS011;7928;43.614;1.456;2023-02-28T10:39:57;4.97;;;4.00;;
15655;SDS011;7928;43.614;1.456;2023-02-28T10:42:24;5.03;;;4.13;;
15655;SDS011;7928;43.614;1.456;2023-02-28T10:47:51;4.07;;;3.67;;
15655;SDS011;7928;43.614;1.456;2023-02-28T10:50:32;4.83;;;4.13;;
15655;SDS011;7928;43.614;1.456;2023-02-28T10:53:22;4.73;;;4.23;;
15655;SDS011;7928;43.614;1.456;2023-02-28T10:55:57;5.50;;;4.03;;
15655;SDS011;7928;43.614;1.456;2023-02-28T10:58:27;5.77;;;4.10;;
15655;SDS011;7928;43.614;1.456;2023-02-28T11:00:56;4.10;;;3.70;;
15655;SDS011;7928;43.614;1.456;2023-02-28T11:03:28;6.97;;;4.23;;
15655;SDS011;7928;43.614;1.456;2023-02-28T11:05:57;4.87;;;4.40;;
15655;SDS011;7928;43.614;1.456;2023-02-28T11:08:26;6.80;;;4.30;;
15655;SDS011;7928;43.614;1.456;2023-02-28T11:10:54;6.03;;;4.40;;
15655;SDS011;7928;43.614;1.456;2023-02-28T11:13:24;5.00;;;4.50;;
15655;SDS011;7928;43.614;1.456;2023-02-28T11:15:55;4.57;;;4.17;;
15655;SDS011;7928;43.614;1.456;2023-02-28T11:18:25;7.40;;;5.10;;
15655;SDS011;7928;43.614;1.456;2023-02-28T11:20:56;5.97;;;4.80;;
15655;SDS011;7928;43.614;1.456;2023-02-28T11:23:27;5.07;;;4.57;;
15655;SDS011;7928;43.614;1.456;2023-02-28T11:25:57;6.40;;;5.03;;
15655;SDS011;7928;43.614;1.456;2023-02-28T11:28:28;6.70;;;4.57;;
15655;SDS011;7928;43.614;1.456;2023-02-28T11:31:01;9.57;;;4.30;;
15655;SDS011;7928;43.614;1.456;2023-02-28T11:33:41;5.77;;;4.67;;
15655;SDS011;7928;43.614;1.456;2023-02-28T11:36:11;4.90;;;4.40;;
15655;SDS011;7928;43.614;1.456;2023-02-28T11:38:41;4.87;;;4.10;;
15655;SDS011;7928;43.614;1.456;2023-02-28T11:41:14;6.20;;;4.83;;
15655;SDS011;7928;43.614;1.456;2023-02-28T11:46:59;5.43;;;4.20;;
15655;SDS011;7928;43.614;1.456;2023-02-28T11:49:32;4.90;;;4.10;;
15655;SDS011;7928;43.614;1.456;2023-02-28T11:52:06;5.97;;;4.47;;
15655;SDS011;7928;43.614;1.456;2023-02-28T11:54:52;6.03;;;3.97;;
15655;SDS011;7928;43.614;1.456;2023-02-28T11:57:52;4.97;;;4.30;;
15655;SDS011;7928;43.614;1.456;2023-02-28T12:00:55;4.40;;;4.00;;
15655;SDS011;7928;43.614;1.456;2023-02-28T12:03:34;4.80;;;4.03;;
15655;SDS011;7928;43.614;1.456;2023-02-28T12:06:13;4.20;;;3.67;;
15655;SDS011;7928;43.614;1.456;2023-02-28T12:08:50;10.00;;;7.67;;
15655;SDS011;7928;43.614;1.456;2023-02-28T12:11:30;4.27;;;3.80;;
15655;SDS011;7928;43.614;1.456;2023-02-28T12:14:30;5.70;;;4.27;;
15655;SDS011;7928;43.614;1.456;2023-02-28T12:17:32;4.40;;;4.00;;
15655;SDS011;7928;43.614;1.456;2023-02-28T12:20:11;5.83;;;3.53;;
15655;SDS011;7928;43.614;1.456;2023-02-28T12:22:47;4.07;;;3.63;;
15655;SDS011;7928;43.614;1.456;2023-02-28T12:25:32;4.50;;;4.10;;
15655;SDS011;7928;43.614;1.456;2023-02-28T12:28:18;4.50;;;4.10;;
15655;SDS011;7928;43.614;1.456;2023-02-28T12:30:51;5.13;;;4.20;;
15655;SDS011;7928;43.614;1.456;2023-02-28T12:33:24;4.67;;;3.70;;
15655;SDS011;7928;43.614;1.456;2023-02-28T12:35:55;4.73;;;4.23;;
15655;SDS011;7928;43.614;1.456;2023-02-28T12:38:25;5.13;;;4.47;;
15655;SDS011;7928;43.614;1.456;2023-02-28T12:40:55;4.90;;;4.40;;
15655;SDS011;7928;43.614;1.456;2023-02-28T12:43:29;4.10;;;3.70;;
15655;SDS011;7928;43.614;1.456;2023-02-28T12:46:01;5.47;;;4.73;;
15655;SDS011;7928;43.614;1.456;2023-02-28T12:48:35;5.00;;;4.50;;
15655;SDS011;7928;43.614;1.456;2023-02-28T12:51:06;4.70;;;4.30;;
15655;SDS011;7928;43.614;1.456;2023-02-28T12:53:36;4.90;;;4.40;;
15655;SDS011;7928;43.614;1.456;2023-02-28T12:56:16;5.10;;;4.63;;
15655;SDS011;7928;43.614;1.456;2023-02-28T12:58:50;5.50;;;4.50;;
15655;SDS011;7928;43.614;1.456;2023-02-28T13:01:29;4.60;;;4.20;;
15655;SDS011;7928;43.614;1.456;2023-02-28T13:04:17;5.23;;;4.50;;
15655;SDS011;7928;43.614;1.456;2023-02-28T13:07:00;4.33;;;3.93;;
15655;SDS011;7928;43.614;1.456;2023-02-28T13:09:40;6.40;;;4.00;;
15655;SDS011;7928;43.614;1.456;2023-02-28T13:12:17;6.00;;;4.27;;
15655;SDS011;7928;43.614;1.456;2023-02-28T13:14:47;5.53;;;4.67;;
15655;SDS011;7928;43.614;1.456;2023-02-28T13:17:17;5.30;;;4.37;;
15655;SDS011;7928;43.614;1.456;2023-02-28T13:19:46;4.90;;;4.20;;
15655;SDS011;7928;43.614;1.456;2023-02-28T13:22:36;5.80;;;3.90;;
15655;SDS011;7928;43.614;1.456;2023-02-28T13:28:14;4.70;;;4.17;;
15655;SDS011;7928;43.614;1.456;2023-02-28T13:31:32;4.33;;;3.80;;
15655;SDS011;7928;43.614;1.456;2023-02-28T13:34:15;4.27;;;3.87;;
15655;SDS011;7928;43.614;1.456;2023-02-28T13:36:42;5.07;;;3.67;;
15655;SDS011;7928;43.614;1.456;2023-02-28T13:42:32;10.57;;;7.47;;
15655;SDS011;7928;43.614;1.456;2023-02-28T13:45:21;8.27;;;6.33;;
15655;SDS011;7928;43.614;1.456;2023-02-28T13:47:55;5.40;;;3.87;;
15655;SDS011;7928;43.614;1.456;2023-02-28T13:50:33;5.03;;;3.93;;
15655;SDS011;7928;43.614;1.456;2023-02-28T13:56:19;4.73;;;3.77;;
15655;SDS011;7928;43.614;1.456;2023-02-28T13:58:58;5.10;;;3.60;;
15655;SDS011;7928;43.614;1.456;2023-02-28T14:01:36;5.20;;;3.90;;
15655;SDS011;7928;43.614;1.456;2023-02-28T14:04:41;4.00;;;3.57;;
15655;SDS011;7928;43.614;1.456;2023-02-28T14:07:24;3.90;;;3.23;;
15655;SDS011;7928;43.614;1.456;2023-02-28T14:09:56;4.53;;;3.80;;
15655;SDS011;7928;43.614;1.456;2023-02-28T14:18:26;4.13;;;3.53;;
15655;SDS011;7928;43.614;1.456;2023-02-28T14:21:10;5.20;;;3.50;;
15655;SDS011;7928;43.614;1.456;2023-02-28T14:26:48;6.30;;;4.43;;
15655;SDS011;7928;43.614;1.456;2023-02-28T14:32:37;4.27;;;3.60;;
15655;SDS011;7928;43.614;1.456;2023-02-28T14:35:14;4.27;;;3.60;;
15655;SDS011;7928;43.614;1.456;2023-02-28T14:37:54;5.13;;;3.90;;
15655;SDS011;7928;43.614;1.456;2023-02-28T14:40:32;4.53;;;3.70;;
15655;SDS011;7928;43.614;1.456;2023-02-28T14:43:02;4.20;;;3.50;;
15655;SDS011;7928;43.614;1.456;2023-02-28T14:45:31;4.27;;;3.40;;
15655;SDS011;7928;43.614;1.456;2023-02-28T14:48:00;4.27;;;3.77;;
15655;SDS011;7928;43.614;1.456;2023-02-28T14:50:30;4.10;;;3.40;;
15655;SDS011;7928;43.614;1.456;2023-02-28T14:53:00;5.87;;;3.23;;
15655;SDS011;7928;43.614;1.456;2023-02-28T14:55:28;4.20;;;3.10;;
15655;SDS011;7928;43.614;1.456;2023-02-28T14:57:57;3.93;;;3.10;;
15655;SDS011;7928;43.614;1.456;2023-02-28T15:00:28;4.33;;;3.27;;
15655;SDS011;7928;43.614;1.456;2023-02-28T15:02:57;4.10;;;3.63;;
15655;SDS011;7928;43.614;1.456;2023-02-28T15:05:26;5.40;;;3.57;;
15655;SDS011;7928;43.614;1.456;2023-02-28T15:08:04;4.73;;;3.63;;
15655;SDS011;7928;43.614;1.456;2023-02-28T15:10:37;4.03;;;3.63;;
15655;SDS011;7928;43.614;1.456;2023-02-28T15:13:05;4.57;;;3.40;;
15655;SDS011;7928;43.614;1.456;2023-02-28T15:15:40;4.07;;;3.10;;
15655;SDS011;7928;43.614;1.456;2023-02-28T15:18:11;3.47;;;3.00;;
15655;SDS011;7928;43.614;1.456;2023-02-28T15:20:43;4.37;;;3.43;;
15655;SDS011;7928;43.614;1.456;2023-02-28T15:23:12;4.20;;;3.47;;
15655;SDS011;7928;43.614;1.456;2023-02-28T15:25:40;3.77;;;3.37;;
15655;SDS011;7928;43.614;1.456;2023-02-28T15:28:12;3.30;;;3.00;;
15655;SDS011;7928;43.614;1.456;2023-02-28T15:30:50;3.73;;;3.30;;
15655;SDS011;7928;43.614;1.456;2023-02-28T15:33:20;4.73;;;3.00;;
15655;SDS011;7928;43.614;1.456;2023-02-28T15:35:49;5.10;;;3.57;;
15655;SDS011;7928;43.614;1.456;2023-02-28T15:38:21;4.90;;;3.10;;
15655;SDS011;7928;43.614;1.456;2023-02-28T15:40:50;4.77;;;3.60;;
15655;SDS011;7928;43.614;1.456;2023-02-28T15:43:34;4.63;;;3.83;;
15655;SDS011;7928;43.614;1.456;2023-02-28T15:46:02;5.17;;;3.83;;
15655;SDS011;7928;43.614;1.456;2023-02-28T15:48:32;3.93;;;3.17;;
15655;SDS011;7928;43.614;1.456;2023-02-28T15:51:02;3.90;;;3.50;;
15655;SDS011;7928;43.614;1.456;2023-02-28T15:53:35;3.87;;;3.30;;
15655;SDS011;7928;43.614;1.456;2023-02-28T15:56:05;6.43;;;3.70;;
15655;SDS011;7928;43.614;1.456;2023-02-28T15:58:42;5.13;;;3.20;;
15655;SDS011;7928;43.614;1.456;2023-02-28T16:01:19;5.60;;;3.50;;
15655;SDS011;7928;43.614;1.456;2023-02-28T16:03:51;4.00;;;3.60;;
15655;SDS011;7928;43.614;1.456;2023-02-28T16:06:28;4.97;;;4.20;;
15655;SDS011;7928;43.614;1.456;2023-02-28T16:09:04;4.07;;;3.67;;
15655;SDS011;7928;43.614;1.456;2023-02-28T16:11:33;4.73;;;3.77;;